Time;durP1;ratioP1;P1;durP2;ratioP2;P2;SDS_P1;SDS_P2;PMS_P1;PMS_P2;Temp;Humidity;BMP_temperature;BMP_pressure;BME280_temperature;BME280_humidity;BME280_pressure;Samples;Min_cycle;Max_cycle;Signal;HPM_P1;HPM_P2
2022/05/28 00:01:09;;;;;;;2.22;1.20;;;;;;;18.39;53.29;97975.00;5393528;26;20051;-77
2022/05/28 00:03:36;;;;;;;2.40;1.30;;;;;;;18.37;51.88;97969.06;5393186;26;20470;-77
2022/05/28 00:06:18;;;;;;;3.42;1.25;;;;;;;18.22;53.44;97960.63;5413672;26;20166;-77
2022/05/28 00:08:46;;;;;;;2.37;1.20;;;;;;;17.79;53.20;97962.97;5413532;26;20130;-77
2022/05/28 00:11:23;;;;;;;2.97;1.33;;;;;;;18.30;53.27;97970.50;5414181;26;20094;-77
2022/05/28 00:13:51;;;;;;;2.10;1.05;;;;;;;17.30;55.35;97969.09;5414405;26;20054;-77
2022/05/28 00:16:18;;;;;;;2.30;1.10;;;;;;;18.07;51.79;97969.59;5394207;26;20114;-77
2022/05/28 00:18:47;;;;;;;2.33;1.10;;;;;;;17.95;50.57;97981.78;5394386;26;20059;-77
2022/05/28 00:21:14;;;;;;;3.83;1.23;;;;;;;17.09;53.98;97981.87;5414692;26;20821;-77
2022/05/28 00:23:44;;;;;;;1.98;1.10;;;;;;;17.96;50.64;97967.78;5414425;26;20103;-76
2022/05/28 00:26:11;;;;;;;3.85;1.00;;;;;;;17.85;49.39;97971.16;5414507;26;20085;-77
2022/05/28 00:28:38;;;;;;;2.20;1.23;;;;;;;17.66;50.77;97973.44;5414493;26;20118;-76
2022/05/28 00:31:06;;;;;;;2.90;1.17;;;;;;;17.03;52.94;97977.09;5414272;26;20102;-77
2022/05/28 00:33:34;;;;;;;4.45;1.50;;;;;;;16.76;51.94;97979.81;5414612;26;20054;-76
2022/05/28 00:36:01;;;;;;;2.42;1.05;;;;;;;17.08;52.77;98001.06;5414623;26;20133;-76
2022/05/28 00:38:28;;;;;;;2.25;1.30;;;;;;;17.16;53.09;98003.97;5393713;26;20058;-76
2022/05/28 00:40:58;;;;;;;4.28;1.30;;;;;;;17.27;54.40;98011.03;5414685;26;20047;-77
2022/05/28 00:43:27;;;;;;;2.25;1.25;;;;;;;18.04;51.87;98007.19;5414587;26;20047;-77
2022/05/28 00:46:06;;;;;;;2.58;1.20;;;;;;;18.05;51.98;98003.66;5414146;26;20108;-77
2022/05/28 00:48:36;;;;;;;1.85;1.15;;;;;;;18.20;50.15;97986.84;5414462;26;20059;-77
2022/05/28 00:51:10;;;;;;;4.20;1.40;;;;;;;18.16;50.74;97980.19;5414550;26;20728;-76
2022/05/28 00:53:37;;;;;;;2.15;1.10;;;;;;;18.13;51.23;97977.81;5394056;26;20059;-76
2022/05/28 00:56:05;;;;;;;2.15;1.37;;;;;;;17.45;54.95;97959.34;5394223;26;20080;-76
2022/05/28 00:58:32;;;;;;;3.17;1.30;;;;;;;17.76;54.15;97951.00;5413897;26;20475;-76
2022/05/28 01:00:59;;;;;;;3.60;1.70;;;;;;;17.23;54.90;97944.41;5414551;26;20109;-76
2022/05/28 01:03:34;;;;;;;2.53;1.33;;;;;;;17.39;54.02;97937.13;5414490;26;20043;-77
2022/05/28 01:06:14;;;;;;;2.17;1.15;;;;;;;17.13;54.08;97946.00;5414101;26;20104;-76
2022/05/28 01:08:57;;;;;;;4.40;1.40;;;;;;;16.93;54.94;97945.63;5414389;26;20119;-76
2022/05/28 01:11:27;;;;;;;3.90;1.30;;;;;;;16.91;55.19;97949.28;5394438;26;20059;-76
2022/05/28 01:14:01;;;;;;;4.70;1.40;;;;;;;17.40;54.17;97945.78;5413760;26;20055;-77
2022/05/28 01:16:36;;;;;;;3.25;1.58;;;;;;;17.71;52.33;97949.66;5394349;26;20063;-77
2022/05/28 01:19:21;;;;;;;5.30;1.40;;;;;;;17.90;50.71;97947.38;5394076;26;20097;-76
2022/05/28 01:21:59;;;;;;;5.72;1.30;;;;;;;18.54;49.11;97952.13;5413831;26;20152;-77
2022/05/28 01:24:43;;;;;;;2.90;1.40;;;;;;;18.66;49.16;97948.59;5394307;26;20119;-77
2022/05/28 01:27:15;;;;;;;3.42;1.40;;;;;;;19.46;46.72;97949.22;5393738;26;20073;-77
2022/05/28 01:29:46;;;;;;;4.82;1.52;;;;;;;19.50;46.43;97947.19;5394065;26;20118;-77
2022/05/28 01:32:14;;;;;;;2.67;1.23;;;;;;;20.02;46.13;97949.03;5394375;26;20102;-77
2022/05/28 01:34:42;;;;;;;4.65;1.67;;;;;;;20.55;43.56;97940.28;5393718;26;20099;-77
2022/05/28 01:37:10;;;;;;;3.37;1.67;;;;;;;19.81;45.33;97935.94;5394143;26;20478;-77
2022/05/28 01:39:39;;;;;;;3.53;1.50;;;;;;;19.96;45.47;97922.50;5414324;26;20420;-77
2022/05/28 01:42:07;;;;;;;3.53;1.52;;;;;;;18.89;47.51;97923.28;5393665;26;20400;-77
2022/05/28 01:44:36;;;;;;;3.08;1.62;;;;;;;19.33;46.91;97925.81;5375382;26;20106;-77
2022/05/28 01:47:03;;;;;;;7.93;2.58;;;;;;;19.40;46.94;97923.56;5394013;26;20067;-77
2022/05/28 01:49:31;;;;;;;4.00;1.55;;;;;;;19.63;46.10;97922.53;5413796;26;20110;-77
2022/05/28 01:51:59;;;;;;;3.17;1.45;;;;;;;20.41;44.33;97916.03;5394255;26;20433;-77
2022/05/28 01:54:29;;;;;;;3.60;1.60;;;;;;;21.02;43.46;97933.56;5394027;26;20047;-77
2022/05/28 01:56:56;;;;;;;3.45;1.42;;;;;;;21.89;40.92;97941.59;5375134;26;20118;-77
2022/05/28 01:59:26;;;;;;;2.53;1.40;;;;;;;22.00;40.48;97938.81;5413972;26;20115;-77
2022/05/28 02:01:55;;;;;;;4.00;1.40;;;;;;;22.21;39.41;97938.69;5393844;26;20063;-77
2022/05/28 02:04:22;;;;;;;2.53;1.20;;;;;;;21.02;42.03;97946.69;5414392;26;20043;-77
2022/05/28 02:06:49;;;;;;;2.03;1.20;;;;;;;21.45;41.00;97961.31;5394032;26;20063;-77
2022/05/28 02:09:22;;;;;;;2.90;1.35;;;;;;;20.02;44.48;97961.31;5413579;26;20054;-77
2022/05/28 02:12:08;;;;;;;4.72;1.65;;;;;;;19.29;45.73;97954.97;5393962;26;20051;-77
2022/05/28 02:15:08;;;;;;;4.57;1.60;;;;;;;19.48;45.68;97949.09;5393778;26;20115;-77
2022/05/28 02:17:40;;;;;;;5.53;1.40;;;;;;;19.27;46.05;97931.56;5382743;26;20087;-77
2022/05/28 02:20:42;;;;;;;4.07;1.42;;;;;;;19.04;46.65;97929.94;5414227;26;20115;-77
2022/05/28 02:23:26;;;;;;;3.58;1.60;;;;;;;18.31;48.66;97930.38;5370934;26;20078;-77
2022/05/28 02:26:14;;;;;;;2.55;1.50;;;;;;;18.37;49.48;97933.34;5394036;26;20051;-77
2022/05/28 02:28:43;;;;;;;3.60;1.67;;;;;;;18.71;48.35;97946.44;5414022;26;20413;-77
2022/05/28 02:31:15;;;;;;;3.15;1.45;;;;;;;19.38;46.73;97941.16;5393602;26;20077;-77
2022/05/28 02:33:43;;;;;;;3.90;1.40;;;;;;;19.50;46.85;97934.09;5393519;26;20070;-77
2022/05/28 02:36:15;;;;;;;2.83;1.48;;;;;;;19.61;45.72;97934.09;5394083;26;20123;-77
2022/05/28 02:38:43;;;;;;;2.55;1.40;;;;;;;18.50;48.92;97933.22;5413484;26;20078;-77
2022/05/28 02:41:11;;;;;;;4.10;1.50;;;;;;;18.98;48.00;97926.00;5394118;26;20133;-77
2022/05/28 02:43:38;;;;;;;3.22;1.50;;;;;;;19.31;46.99;97925.12;5393907;26;20420;-77
2022/05/28 02:46:06;;;;;;;4.93;1.80;;;;;;;19.33;46.98;97925.81;5414032;26;20058;-77
2022/05/28 02:48:33;;;;;;;3.05;1.65;;;;;;;18.88;48.85;97927.69;5413957;26;20128;-77
2022/05/28 02:51:14;;;;;;;3.97;1.65;;;;;;;18.88;48.65;97919.00;5393525;26;20146;-77
2022/05/28 02:53:41;;;;;;;4.53;1.55;;;;;;;19.08;47.80;97924.34;5412876;26;20337;-77
2022/05/28 02:56:09;;;;;;;7.00;1.90;;;;;;;18.79;48.44;97925.78;5414073;26;20056;-77
2022/05/28 02:58:37;;;;;;;2.42;1.40;;;;;;;18.20;50.11;97912.91;5413541;26;20410;-77
2022/05/28 03:01:17;;;;;;;4.32;2.15;;;;;;;17.29;53.79;97912.66;5414224;26;20110;-77
2022/05/28 03:03:44;;;;;;;3.75;1.40;;;;;;;17.76;52.87;97918.84;5414152;26;20667;-77
2022/05/28 03:06:12;;;;;;;5.90;1.80;;;;;;;17.40;54.16;97925.75;5413614;26;20500;-77
2022/05/28 03:08:39;;;;;;;2.42;1.50;;;;;;;17.24;54.86;97923.44;5413749;26;20055;-77
2022/05/28 03:11:06;;;;;;;2.08;1.40;;;;;;;16.90;56.77;97919.75;5414160;26;20113;-77
2022/05/28 03:13:34;;;;;;;4.32;1.52;;;;;;;17.20;56.52;97911.53;5402821;26;279260;-77
2022/05/28 03:16:02;;;;;;;3.20;1.62;;;;;;;16.65;58.17;97906.75;5393759;26;20406;-77
2022/05/28 03:18:29;;;;;;;3.78;1.73;;;;;;;16.39;60.05;97912.00;5413969;26;20493;-77
2022/05/28 03:20:56;;;;;;;9.07;1.62;;;;;;;16.84;58.30;97915.00;5413570;26;20102;-77
2022/05/28 03:23:23;;;;;;;5.45;1.90;;;;;;;16.03;61.50;97915.31;5414031;26;20147;-77
2022/05/28 03:25:50;;;;;;;6.75;1.90;;;;;;;16.51;60.41;97923.34;5413639;26;20445;-77
2022/05/28 03:28:17;;;;;;;4.90;1.80;;;;;;;16.43;60.36;97916.06;5413790;26;20127;-77
2022/05/28 03:30:44;;;;;;;4.32;1.55;;;;;;;16.29;60.52;97926.59;5413947;26;20524;-77
2022/05/28 03:33:12;;;;;;;3.45;1.50;;;;;;;16.72;59.39;97936.69;5413666;26;20686;-77
2022/05/28 03:35:40;;;;;;;4.62;1.60;;;;;;;17.33;57.32;97929.75;5413930;26;20091;-77
2022/05/28 03:38:07;;;;;;;4.62;1.73;;;;;;;17.61;56.41;97947.69;5413771;26;20027;-77
2022/05/28 03:40:34;;;;;;;5.57;1.60;;;;;;;17.10;57.61;97933.16;5413520;26;20063;-77
2022/05/28 03:43:01;;;;;;;7.00;2.08;;;;;;;17.53;56.74;97934.34;5393707;26;20126;-77
2022/05/28 03:45:28;;;;;;;2.45;1.37;;;;;;;17.37;58.08;97931.22;5413871;26;20043;-77
2022/05/28 03:47:56;;;;;;;4.65;1.60;;;;;;;16.80;60.41;97918.78;5413316;26;20083;-77
2022/05/28 03:50:23;;;;;;;5.03;1.50;;;;;;;16.20;62.80;97909.81;5393831;26;20078;-77
2022/05/28 03:52:50;;;;;;;5.22;1.70;;;;;;;16.61;61.27;97916.56;5413865;26;20440;-77
2022/05/28 03:55:17;;;;;;;4.68;1.70;;;;;;;17.12;59.64;97923.47;5413450;26;20096;-77
2022/05/28 03:57:46;;;;;;;5.87;1.70;;;;;;;16.74;60.67;97924.41;5413822;26;20504;-77
2022/05/28 04:00:14;;;;;;;4.78;1.60;;;;;;;16.44;62.39;97935.94;5413805;26;20059;-77
2022/05/28 04:02:41;;;;;;;3.50;1.67;;;;;;;16.98;60.06;97943.53;5413331;26;20082;-77
2022/05/28 04:05:09;;;;;;;3.95;1.35;;;;;;;17.18;58.82;97946.50;5413716;26;20052;-77
2022/05/28 04:07:37;;;;;;;5.87;1.60;;;;;;;16.85;59.39;97932.28;5413557;26;20492;-77
2022/05/28 04:10:05;;;;;;;4.47;1.70;;;;;;;17.37;59.10;97938.19;5393181;26;20055;-77
2022/05/28 04:12:32;;;;;;;4.18;1.60;;;;;;;17.53;58.41;97941.34;5374526;26;20131;-77
2022/05/28 04:14:59;;;;;;;5.87;1.85;;;;;;;17.60;58.22;97937.34;5413495;26;20060;-77
2022/05/28 04:17:26;;;;;;;7.05;1.80;;;;;;;16.69;60.90;97939.50;5393412;26;20075;-77
2022/05/28 04:19:53;;;;;;;4.43;1.50;;;;;;;16.96;60.91;97942.78;5413542;26;20126;-77
2022/05/28 04:22:20;;;;;;;9.20;2.05;;;;;;;17.07;60.02;97949.88;5413194;26;20099;-77
2022/05/28 04:24:47;;;;;;;7.03;1.92;;;;;;;17.02;60.79;97950.19;5413645;26;20070;-77
2022/05/28 04:27:14;;;;;;;5.78;2.03;;;;;;;17.22;60.59;97959.19;5413310;26;20067;-77
2022/05/28 04:29:41;;;;;;;5.00;1.70;;;;;;;16.63;62.45;97947.72;5413182;26;20064;-77
2022/05/28 04:32:08;;;;;;;3.72;1.70;;;;;;;17.23;60.98;97958.28;5413588;26;20138;-77
2022/05/28 04:34:35;;;;;;;3.67;1.70;;;;;;;17.43;60.24;97966.44;5393349;26;20102;-77
2022/05/28 04:37:02;;;;;;;5.95;1.85;;;;;;;16.69;62.57;97950.78;5413055;26;20074;-77
2022/05/28 04:39:29;;;;;;;4.60;1.62;;;;;;;17.37;60.41;97954.69;5413196;26;20110;-77
2022/05/28 04:41:56;;;;;;;5.18;1.60;;;;;;;17.09;61.53;97963.63;5413625;26;20099;-77
2022/05/28 04:44:23;;;;;;;5.53;2.30;;;;;;;17.44;60.29;97958.53;5413025;26;20099;-77
2022/05/28 04:46:50;;;;;;;4.60;1.90;;;;;;;17.61;60.17;97963.34;5413275;26;20069;-77
2022/05/28 04:49:17;;;;;;;6.62;1.90;;;;;;;17.82;59.51;97966.19;5413131;26;20063;-77
2022/05/28 04:51:44;;;;;;;5.05;1.70;;;;;;;18.09;58.93;97954.66;5413175;26;20044;-77
2022/05/28 04:54:11;;;;;;;5.40;2.10;;;;;;;17.94;58.83;97956.63;5413566;26;20404;-77
2022/05/28 04:56:38;;;;;;;4.68;1.90;;;;;;;17.89;59.32;97967.41;5413915;26;20118;-77
2022/05/28 04:59:05;;;;;;;4.15;1.77;;;;;;;17.55;61.59;97971.63;5414007;26;20059;-77
2022/05/28 05:01:32;;;;;;;6.32;1.85;;;;;;;18.39;58.56;97970.62;5414629;26;20095;-77
2022/05/28 05:03:59;;;;;;;6.32;1.80;;;;;;;17.21;62.83;97973.16;5414298;26;20071;-77
2022/05/28 05:06:26;;;;;;;4.25;1.77;;;;;;;17.38;61.31;97981.59;5394196;26;20074;-77
2022/05/28 05:08:53;;;;;;;3.70;1.73;;;;;;;17.68;61.24;97983.78;5414177;26;20119;-77
2022/05/28 05:11:20;;;;;;;4.40;1.77;;;;;;;17.21;61.96;97978.38;5414208;26;20074;-77
2022/05/28 05:13:47;;;;;;;8.18;1.80;;;;;;;17.92;59.15;97977.62;5414176;26;20048;-77
2022/05/28 05:16:17;;;;;;;3.78;1.80;;;;;;;17.01;61.39;97968.53;5414417;26;20079;-77
2022/05/28 05:18:45;;;;;;;4.45;1.90;;;;;;;17.56;61.56;97975.91;5413836;26;20069;-77
2022/05/28 05:21:12;;;;;;;5.62;1.90;;;;;;;17.49;61.70;97973.81;5414524;26;20099;-77
2022/05/28 05:23:40;;;;;;;6.75;2.15;;;;;;;17.92;60.84;97982.84;5414371;26;20375;-77
2022/05/28 05:26:19;;;;;;;4.82;1.90;;;;;;;17.94;60.46;97974.88;5393700;26;20138;-77
2022/05/28 05:28:46;;;;;;;4.43;1.70;;;;;;;18.28;59.03;97972.38;5394008;26;20432;-77
2022/05/28 05:31:14;;;;;;;7.62;1.73;;;;;;;18.45;58.15;97974.56;5394319;26;20118;-77
2022/05/28 05:33:41;;;;;;;5.65;1.67;;;;;;;17.31;62.11;97961.16;5393899;26;20067;-77
2022/05/28 05:36:08;;;;;;;2.47;1.40;;;;;;;17.23;63.51;97965.28;5414434;26;20075;-77
2022/05/28 05:38:36;;;;;;;4.93;1.75;;;;;;;17.03;63.74;97964.91;5414474;26;20070;-77
2022/05/28 05:41:03;;;;;;;5.18;1.52;;;;;;;17.41;62.08;97978.75;5393655;26;20058;-77
2022/05/28 05:43:30;;;;;;;4.65;1.83;;;;;;;16.95;63.91;97971.56;5414408;26;20044;-77
2022/05/28 05:45:59;;;;;;;4.97;2.05;;;;;;;17.46;62.14;97974.88;5394310;26;20179;-77
2022/05/28 05:48:28;;;;;;;4.12;1.70;;;;;;;16.73;65.44;97969.62;5393710;26;20059;-77
2022/05/28 05:50:55;;;;;;;4.60;1.83;;;;;;;16.75;64.98;97962.53;5414352;26;20134;-77
2022/05/28 05:53:22;;;;;;;4.43;2.00;;;;;;;16.90;64.19;97965.84;5413952;26;20070;-77
2022/05/28 05:55:49;;;;;;;5.28;1.98;;;;;;;16.66;67.85;97960.53;5414336;26;20115;-77
2022/05/28 05:58:15;;;;;;;6.40;1.65;;;;;;;17.18;65.09;97978.63;5414207;26;20314;-77
2022/05/28 06:00:42;;;;;;;4.95;1.92;;;;;;;16.92;64.18;97974.41;5413921;26;20056;-77
2022/05/28 06:03:16;;;;;;;7.25;2.25;;;;;;;16.93;64.47;97969.09;5414289;26;20398;-77
2022/05/28 06:05:43;;;;;;;5.50;2.00;;;;;;;16.98;64.61;97980.00;5394261;26;20110;-77
2022/05/28 06:08:11;;;;;;;4.12;1.98;;;;;;;17.39;62.82;97978.88;5413213;26;20111;-77
2022/05/28 06:10:38;;;;;;;3.05;1.85;;;;;;;17.40;63.40;97984.91;5414146;26;20079;-77
2022/05/28 06:13:05;;;;;;;5.45;2.00;;;;;;;17.88;61.04;97997.06;5414054;26;20099;-77
2022/05/28 06:15:32;;;;;;;4.28;2.08;;;;;;;18.61;59.23;97995.97;5413800;26;20107;-77
2022/05/28 06:17:59;;;;;;;5.03;2.03;;;;;;;19.20;57.24;97994.94;5414212;26;20102;-77
2022/05/28 06:20:26;;;;;;;5.45;2.00;;;;;;;18.84;58.54;97986.41;5414157;26;20142;-77
2022/05/28 06:22:53;;;;;;;4.25;1.77;;;;;;;17.81;62.20;98002.84;5413751;26;20075;-77
2022/05/28 06:25:20;;;;;;;5.78;1.92;;;;;;;19.52;56.96;98008.06;5414300;26;20083;-77
2022/05/28 06:27:47;;;;;;;5.30;2.00;;;;;;;20.14;54.30;98016.12;5413991;26;20107;-77
2022/05/28 06:30:14;;;;;;;7.70;2.12;;;;;;;20.49;54.34;98007.16;5413678;26;20074;-77
2022/05/28 06:32:41;;;;;;;5.65;2.00;;;;;;;20.57;54.75;98003.91;5414226;26;20453;-77
2022/05/28 06:35:09;;;;;;;4.75;1.90;;;;;;;20.81;53.92;97999.19;5414258;26;20058;-77
2022/05/28 06:37:36;;;;;;;5.90;2.10;;;;;;;20.18;56.88;97985.25;5413862;26;20082;-77
2022/05/28 06:40:05;;;;;;;4.30;2.00;;;;;;;20.70;55.58;97996.66;5414007;26;20390;-77
2022/05/28 06:42:32;;;;;;;5.28;1.90;;;;;;;22.25;50.63;97999.69;5413883;26;20134;-77
2022/05/28 06:44:59;;;;;;;4.47;2.08;;;;;;;22.17;50.61;98003.84;5414178;26;20383;-77
2022/05/28 06:47:27;;;;;;;7.57;2.00;;;;;;;22.89;47.95;98014.81;5413849;26;20110;-78
2022/05/28 06:52:40;;;;;;;4.55;2.10;;;;;;;23.55;46.60;98035.72;5414179;26;20114;-77
2022/05/28 06:55:07;;;;;;;5.87;2.10;;;;;;;23.40;45.76;98032.75;5414149;26;20130;-77
2022/05/28 06:57:34;;;;;;;4.35;2.10;;;;;;;23.12;46.78;98037.16;5413521;26;20137;-78
2022/05/28 07:00:01;;;;;;;6.50;2.87;;;;;;;23.26;45.14;98044.56;5414039;26;20110;-77
2022/05/28 07:02:28;;;;;;;4.53;2.03;;;;;;;23.79;43.13;98049.16;5413997;26;20067;-77
2022/05/28 07:04:55;;;;;;;5.45;2.00;;;;;;;23.94;43.60;98052.97;5413622;26;20099;-77
2022/05/28 07:07:22;;;;;;;5.05;2.00;;;;;;;23.98;43.13;98050.03;5413878;26;20059;-77
2022/05/28 07:09:49;;;;;;;3.37;1.80;;;;;;;24.17;42.63;98045.44;5414057;26;20051;-78
2022/05/28 07:12:15;;;;;;;5.57;1.80;;;;;;;23.71;42.85;98051.69;5413574;26;20108;-78
2022/05/28 07:14:42;;;;;;;3.75;1.92;;;;;;;24.16;41.28;98048.22;5413840;26;20114;-78
2022/05/28 07:17:09;;;;;;;4.32;1.73;;;;;;;23.77;41.28;98053.75;5414082;26;20380;-78
2022/05/28 07:19:36;;;;;;;3.90;1.70;;;;;;;23.72;41.74;98037.59;5413312;26;20374;-78
2022/05/28 07:22:04;;;;;;;4.82;1.60;;;;;;;24.37;40.41;98034.75;5414047;26;20043;-78
2022/05/28 07:24:30;;;;;;;5.45;2.03;;;;;;;23.73;41.09;98041.03;5413720;26;20095;-78
2022/05/28 07:26:57;;;;;;;3.62;1.70;;;;;;;23.90;40.73;98042.84;5413897;26;20196;-78
2022/05/28 07:29:24;;;;;;;3.85;1.80;;;;;;;24.35;39.90;98034.06;5413718;26;20047;-78
2022/05/28 07:31:51;;;;;;;5.62;1.80;;;;;;;25.09;38.49;98038.88;5413671;26;20054;-78
2022/05/28 07:34:18;;;;;;;4.30;1.83;;;;;;;24.60;38.68;98035.94;5414018;26;20411;-78
2022/05/28 07:36:47;;;;;;;4.40;1.55;;;;;;;25.12;38.62;98038.59;5414032;26;20122;-78
2022/05/28 07:39:15;;;;;;;7.50;1.90;;;;;;;23.85;40.93;98039.84;5413239;26;20052;-78
2022/05/28 07:41:43;;;;;;;4.80;1.77;;;;;;;24.70;40.06;98043.75;5393750;26;20047;-78
2022/05/28 07:44:10;;;;;;;4.03;1.73;;;;;;;24.45;40.20;98038.28;5413909;26;20106;-78
2022/05/28 07:46:37;;;;;;;4.20;1.83;;;;;;;24.27;40.30;98042.72;5393092;26;20069;-78
2022/05/28 07:49:06;;;;;;;4.07;1.85;;;;;;;24.14;40.67;98037.00;5413550;26;20051;-78
2022/05/28 07:51:35;;;;;;;3.00;1.70;;;;;;;24.44;41.13;98044.53;5413873;26;20043;-78
2022/05/28 07:54:03;;;;;;;7.40;1.90;;;;;;;24.13;42.54;98048.50;5413501;26;20075;-78
2022/05/28 07:56:30;;;;;;;6.10;2.10;;;;;;;24.45;41.77;98048.00;5393914;26;20111;-77
2022/05/28 07:58:59;;;;;;;4.07;1.60;;;;;;;24.02;42.96;98030.28;5413507;26;20119;-77
2022/05/28 08:01:29;;;;;;;7.55;2.15;;;;;;;23.73;43.66;98027.87;5413567;26;20526;-78
2022/05/28 08:03:59;;;;;;;9.73;2.00;;;;;;;23.88;43.23;98026.37;5394247;26;20063;-77
2022/05/28 08:06:27;;;;;;;4.40;1.70;;;;;;;24.41;41.02;98030.84;5413383;26;20066;-78
2022/05/28 08:08:54;;;;;;;3.72;1.60;;;;;;;23.93;43.72;98030.22;5413398;26;20095;-78
2022/05/28 08:11:21;;;;;;;7.22;1.80;;;;;;;23.49;42.74;98031.84;5413804;26;20094;-78
2022/05/28 08:13:49;;;;;;;3.37;1.70;;;;;;;23.34;44.87;98034.16;5413192;26;20067;-78
2022/05/28 08:16:16;;;;;;;7.80;2.33;;;;;;;23.35;43.77;98035.81;5393417;26;20080;-78
2022/05/28 08:18:44;;;;;;;3.75;1.50;;;;;;;23.86;42.10;98038.88;5413503;26;20051;-77
2022/05/28 08:23:56;;;;;;;5.32;1.87;;;;;;;23.59;43.18;98053.72;5413714;26;20107;-77
2022/05/28 08:26:24;;;;;;;5.43;1.87;;;;;;;23.14;45.51;98053.62;5413691;26;20106;-77
2022/05/28 08:28:52;;;;;;;4.65;1.85;;;;;;;22.79;45.81;98056.87;5412929;26;20056;-77
2022/05/28 08:31:20;;;;;;;5.55;1.92;;;;;;;23.35;44.73;98054.22;5393794;26;20075;-77
2022/05/28 08:33:48;;;;;;;5.45;1.92;;;;;;;22.73;46.01;98067.97;5414626;26;20393;-77
2022/05/28 08:36:15;;;;;;;4.82;1.77;;;;;;;23.12;44.91;98060.84;5414198;26;20065;-77
2022/05/28 08:38:43;;;;;;;6.45;2.30;;;;;;;22.85;45.78;98058.97;5414434;26;20052;-77
2022/05/28 08:41:23;;;;;;;5.45;1.67;;;;;;;23.08;45.07;98062.12;5414500;26;20095;-77
2022/05/28 08:44:18;;;;;;;2.90;1.75;;;;;;;22.35;44.76;98068.84;5414255;26;20110;-77
2022/05/28 08:46:53;;;;;;;6.97;1.90;;;;;;;22.45;45.91;98056.53;5414675;26;20122;-77
2022/05/28 08:49:23;;;;;;;6.10;2.22;;;;;;;22.27;46.38;98053.75;5414008;26;20330;-77
2022/05/28 08:51:59;;;;;;;5.15;1.87;;;;;;;22.83;42.97;98047.72;5394436;26;20394;-77
2022/05/28 08:54:33;;;;;;;5.95;2.00;;;;;;;22.45;42.97;98052.09;5414505;26;20074;-77
2022/05/28 08:57:09;;;;;;;6.07;2.10;;;;;;;22.99;41.56;98047.19;5414237;26;20393;-77
2022/05/28 08:59:52;;;;;;;6.68;2.15;;;;;;;22.79;41.86;98044.56;5394233;26;20062;-78
2022/05/28 09:02:37;;;;;;;5.40;1.90;;;;;;;22.85;42.24;98047.63;5394330;26;20456;-77
2022/05/28 09:05:07;;;;;;;9.27;3.05;;;;;;;22.64;41.00;98061.75;5414769;26;20107;-77
2022/05/28 09:07:35;;;;;;;7.45;1.80;;;;;;;22.72;41.30;98053.97;5414501;26;20457;-77
2022/05/28 09:10:02;;;;;;;8.18;2.28;;;;;;;22.48;42.60;98056.25;5413980;26;20551;-77
2022/05/28 09:12:44;;;;;;;9.50;2.15;;;;;;;22.02;42.39;98047.25;5394135;26;20517;-77
2022/05/28 09:15:12;;;;;;;3.87;1.75;;;;;;;22.20;42.50;98050.84;5414609;26;20391;-78
2022/05/28 09:17:42;;;;;;;6.65;2.05;;;;;;;22.87;40.31;98046.53;5414027;26;20059;-78
2022/05/28 09:20:15;;;;;;;6.90;1.90;;;;;;;22.84;41.10;98051.22;5414405;26;20405;-78
2022/05/28 09:22:42;;;;;;;5.28;2.00;;;;;;;22.89;41.58;98062.16;5394400;26;20095;-78
2022/05/28 09:25:10;;;;;;;8.48;2.05;;;;;;;23.01;41.72;98064.47;5414064;26;20134;-78
2022/05/28 09:28:01;;;;;;;4.75;1.73;;;;;;;23.17;41.39;98065.66;5414204;26;20094;-78
2022/05/28 09:30:56;;;;;;;5.93;1.80;;;;;;;23.18;40.06;98070.81;5414348;26;20094;-78
2022/05/28 09:33:26;;;;;;;6.00;2.03;;;;;;;22.86;41.68;98078.22;5414618;26;20088;-77
2022/05/28 09:36:07;;;;;;;6.03;2.00;;;;;;;22.76;45.48;98076.41;5394255;26;20122;-77
2022/05/28 09:39:09;;;;;;;4.75;1.92;;;;;;;22.83;45.93;98075.84;5413965;26;20063;-77
2022/05/28 09:41:47;;;;;;;4.72;2.00;;;;;;;23.18;45.39;98076.06;5414349;26;20102;-77
2022/05/28 09:44:20;;;;;;;6.68;2.20;;;;;;;22.72;46.07;98071.56;5394439;26;20111;-77
2022/05/28 09:46:47;;;;;;;3.87;1.62;;;;;;;22.84;46.84;98065.19;5414014;26;20077;-77
2022/05/28 09:49:16;;;;;;;7.57;2.37;;;;;;;23.09;46.07;98061.12;5393853;26;20063;-77
2022/05/28 09:51:58;;;;;;;5.70;2.20;;;;;;;23.36;46.03;98060.31;5414089;26;20141;-78
2022/05/28 09:54:30;;;;;;;5.25;2.10;;;;;;;23.06;46.15;98061.41;5414465;26;20482;-77
2022/05/28 09:57:01;;;;;;;4.35;2.08;;;;;;;22.49;48.38;98061.34;5394304;26;20082;-78
2022/05/28 09:59:49;;;;;;;5.43;1.90;;;;;;;22.56;48.85;98061.62;5413937;26;20069;-78
2022/05/28 10:02:25;;;;;;;5.20;1.90;;;;;;;23.09;46.50;98054.06;5394370;26;20557;-78
2022/05/28 10:05:11;;;;;;;7.10;1.90;;;;;;;22.96;45.97;98040.38;5394314;26;20057;-78
2022/05/28 10:08:11;;;;;;;5.18;2.03;;;;;;;23.32;41.89;98037.91;5393832;26;20055;-78
2022/05/28 10:10:40;;;;;;;4.57;1.80;;;;;;;23.04;41.35;98050.19;5414158;26;20414;-77
2022/05/28 10:13:21;;;;;;;4.80;1.87;;;;;;;23.11;40.98;98048.66;5413576;26;20416;-77
2022/05/28 10:15:54;;;;;;;8.10;2.25;;;;;;;23.40;40.87;98048.53;5414351;26;20397;-77
2022/05/28 10:18:42;;;;;;;7.80;2.20;;;;;;;23.53;42.12;98042.94;5414211;26;20074;-77
2022/05/28 10:21:09;;;;;;;5.90;2.22;;;;;;;24.09;42.02;98031.34;5393540;26;20073;-78
2022/05/28 10:23:38;;;;;;;6.07;2.03;;;;;;;23.99;40.59;98025.31;5414234;26;20115;-78
2022/05/28 10:26:15;;;;;;;6.40;2.15;;;;;;;23.98;40.09;98026.31;5394108;26;20051;-78
2022/05/28 10:28:48;;;;;;;10.85;2.10;;;;;;;24.17;39.37;98031.44;5393513;26;20062;-78
2022/05/28 10:31:37;;;;;;;8.75;2.10;;;;;;;23.65;40.28;98037.34;5414184;26;20122;-78
2022/05/28 10:34:05;;;;;;;8.27;2.00;;;;;;;24.03;39.08;98037.22;5413886;26;20057;-77
2022/05/28 10:36:36;;;;;;;5.50;1.80;;;;;;;24.08;38.74;98043.69;5394169;26;20043;-78
2022/05/28 10:39:13;;;;;;;7.65;2.03;;;;;;;23.80;37.84;98042.91;5414014;26;20426;-78
2022/05/28 10:41:42;;;;;;;7.65;1.98;;;;;;;23.90;39.15;98041.03;5413783;26;20202;-78
2022/05/28 10:44:12;;;;;;;6.25;2.10;;;;;;;24.33;39.11;98036.03;5414200;26;20146;-78
2022/05/28 10:46:49;;;;;;;7.57;2.05;;;;;;;24.44;38.48;98039.25;5394594;26;20099;-78
2022/05/28 10:49:49;;;;;;;;;;;;;;;24.99;38.75;98038.12;5413842;26;20074;-78
2022/05/28 10:52:24;;;;;;;;;;;;;;;24.73;35.50;98031.06;5376093;26;19974;-78
2022/05/28 10:54:56;;;;;;;6.43;2.08;;;;;;;25.50;34.56;98042.53;5413534;26;19954;-78
2022/05/28 10:57:29;;;;;;;4.32;1.90;;;;;;;24.96;36.50;98044.56;5394107;26;20063;-78
2022/05/28 11:00:05;;;;;;;7.15;2.10;;;;;;;25.64;37.69;98044.59;5414040;26;20095;-78
2022/05/28 11:02:37;;;;;;;7.05;2.17;;;;;;;25.50;37.94;98036.44;5413746;26;20110;-78
2022/05/28 11:05:38;;;;;;;6.53;2.20;;;;;;;25.23;36.63;98035.66;5414241;26;20055;-78
2022/05/28 11:08:30;;;;;;;8.02;2.22;;;;;;;25.60;36.76;98034.47;5413818;26;20056;-78
2022/05/28 11:11:01;;;;;;;4.47;2.10;;;;;;;24.65;36.55;98030.19;5413552;26;20107;-78
2022/05/28 11:13:31;;;;;;;7.87;2.20;;;;;;;24.98;37.05;98023.28;5413935;26;20060;-78
2022/05/28 11:16:15;;;;;;;8.00;2.42;;;;;;;25.88;35.62;98024.50;5413728;26;20102;-78
2022/05/28 11:19:18;;;;;;;4.28;1.95;;;;;;;25.20;34.33;98019.28;5413991;26;20074;-78
2022/05/28 11:21:55;;;;;;;6.10;2.20;;;;;;;25.43;33.29;98019.59;5321233;27;20113;-78
2022/05/28 11:24:52;;;;;;;5.75;2.10;;;;;;;25.72;32.43;98021.81;5402294;26;20114;-78
2022/05/28 11:27:38;;;;;;;8.27;2.20;;;;;;;25.73;32.39;98021.66;5413989;26;20059;-78
2022/05/28 11:30:18;;;;;;;6.18;2.00;;;;;;;26.01;32.05;98016.09;5393383;26;20098;-80
2022/05/28 11:32:50;;;;;;;5.32;2.40;;;;;;;25.87;33.38;98021.03;5393956;26;20083;-78
2022/05/28 11:36:01;;;;;;;9.30;2.25;;;;;;;25.61;33.23;98022.91;5414191;26;20050;-78
2022/05/28 11:38:47;;;;;;;7.12;2.00;;;;;;;26.12;32.76;98021.91;5371085;26;20111;-78
2022/05/28 11:41:19;;;;;;;6.32;2.20;;;;;;;26.27;32.50;98019.44;5393701;26;20098;-78
2022/05/28 11:43:52;;;;;;;7.35;2.25;;;;;;;24.96;33.76;98012.88;5393845;26;20079;-78
2022/05/28 11:46:35;;;;;;;6.93;1.98;;;;;;;25.16;34.49;97996.84;5393521;26;20071;-78
2022/05/28 11:52:36;;;;;;;5.95;2.40;;;;;;;25.84;33.01;97999.38;5396424;26;20051;-78
2022/05/28 11:55:10;;;;;;;7.32;2.55;;;;;;;26.48;32.94;98001.28;5413832;26;20390;-78
2022/05/28 11:58:03;;;;;;;6.22;2.25;;;;;;;26.79;32.02;97997.91;5393888;26;20055;-78
2022/05/28 12:00:36;;;;;;;8.13;2.10;;;;;;;26.75;31.89;97994.78;5413815;26;20106;-78
2022/05/28 12:03:19;;;;;;;7.72;2.22;;;;;;;25.36;34.49;97987.69;5413939;26;20114;-78